Latest Weather Observations for Kingscote

IDS60801

Issued at 8:05 pm CST Wednesday 30 July 2014 (issued every 30 minutes, with the page automatically refreshed every 10 minutes)

About weather observations | Map of weather stations | Latest weather observations for SA | Other Formats
Station Details ID: 022841 Name: KINGSCOTE AERO Lat: -35.71 Lon: 137.52 Height: 6.23 m
Data from the previous 72 hours. | See also: Recent months at Kingscote
Date/Time
CST
Temp
°C
App
Temp
°C
Dew
Point
Rel
Hum
%
Delta-T
°C
Wind Press
QNH
hPa
Press
MSL
hPa
Rain
since 9 am
mm
Dir
 
Spd
km/h
Gust
km/h
Spd
kts
Gust
kts
30/08:00pm 15.4 9.8 11.4 77 2.1 NW 32 46 17 25 1011.3 - 0.0
30/07:30pm 15.5 9.9 12.1 80 1.9 NW 33 44 18 24 1011.7 1011.7 0.0
30/07:00pm 15.4 9.8 12.0 80 1.8 NW 33 46 18 25 1012.0 - 0.0
30/06:30pm 15.3 10.3 12.1 81 1.7 NW 30 39 16 21 1012.0 1012.0 0.0
30/06:00pm 15.3 10.7 12.2 82 1.7 NW 28 39 15 21 1012.0 1012.0 0.0
30/05:30pm 15.6 10.7 12.4 81 1.8 NW 30 46 16 25 1011.9 1011.9 0.0
30/05:28pm 15.6 11.0 12.2 80 1.9 NW 28 46 15 25 1011.8 - 0.0
30/05:00pm 15.7 11.2 12.5 81 1.8 NW 28 41 15 22 1011.7 - 0.0
30/04:30pm 15.8 11.6 12.5 81 1.8 NW 26 35 14 19 1011.9 1011.9 0.0
30/04:00pm 16.4 11.5 12.4 77 2.2 NW 30 43 16 23 1012.1 - 0.0
30/03:30pm 16.5 9.8 11.0 70 2.9 WNW 37 57 20 31 1012.2 1012.2 0.0
30/03:00pm 16.9 10.3 11.2 69 3.1 NW 37 61 20 33 1012.4 1012.4 0.0
30/02:30pm 17.8 11.5 12.3 70 3.0 NW 37 50 20 27 1012.6 1012.6 0.0
30/02:01pm 17.3 10.9 10.7 65 3.5 NW 35 54 19 29 1012.8 - 0.0
30/02:00pm 17.4 11.0 10.8 65 3.5 NW 35 52 19 28 1012.8 - 0.0
30/01:30pm 17.7 10.7 11.3 66 3.5 WNW 39 52 21 28 1013.2 1013.2 0.0
30/01:00pm 17.4 10.6 10.5 64 3.7 WNW 37 54 20 29 1013.8 - 0.0
30/12:55pm 17.3 10.9 10.7 65 3.5 WNW 35 54 19 29 1013.7 - 0.0
30/12:30pm 17.8 11.3 11.6 67 3.4 WNW 37 50 20 27 1014.3 1014.3 0.0
30/12:15pm 18.3 12.8 11.8 66 3.6 WNW 32 50 17 27 1014.6 - 0.0
30/12:00pm 17.5 10.3 10.6 64 3.7 WNW 39 52 21 28 1014.7 1014.7 0.0
30/11:36am 17.1 10.6 10.2 64 3.7 W 35 54 19 29 1015.2 - 0.0
30/11:30am 16.8 9.4 9.7 63 3.7 WNW 39 54 21 29 1015.4 1015.4 0.0
30/11:06am 16.9 11.1 10.7 67 3.3 WNW 32 50 17 27 1015.5 - 0.0
30/11:00am 16.3 10.6 11.0 71 2.8 W 32 44 17 24 1015.6 - 0.0
30/10:30am 17.0 9.9 9.7 62 3.8 W 37 61 20 33 1015.8 1015.8 0.0
30/10:02am 17.0 12.0 12.1 73 2.7 WNW 30 48 16 26 1015.8 - 0.0
30/10:00am 17.0 12.5 12.5 75 2.5 WNW 28 44 15 24 1015.9 - 0.0
30/09:48am 16.2 10.7 12.0 76 2.3 WNW 32 50 17 27 1015.9 - 0.0
30/09:30am 16.4 12.1 12.0 75 2.4 WNW 26 39 14 21 1016.0 1016.0 0.0
30/09:00am 15.5 11.7 12.4 82 1.7 NW 24 35 13 19 1016.1 1016.1 0.4
30/08:30am 15.5 11.6 12.1 80 1.8 NW 24 32 13 17 1016.0 1016.0 0.4
30/08:00am 14.5 11.7 11.3 81 1.7 NW 17 26 9 14 1015.8 - 0.4
30/07:30am 14.2 10.5 10.2 77 2.1 WNW 20 28 11 15 1016.0 1016.0 0.4
30/07:00am 14.4 10.4 10.4 77 2.1 WNW 22 30 12 16 1015.9 - 0.4
30/06:30am 14.5 10.0 10.1 75 2.3 WNW 24 35 13 19 1015.6 1015.6 0.4
30/06:00am 14.9 10.9 10.5 75 2.3 W 22 39 12 21 1015.6 1015.6 0.4
30/05:30am 14.4 11.2 11.2 81 1.7 W 19 26 10 14 1015.2 1015.2 0.4
30/05:00am 14.9 9.7 11.5 80 1.8 WNW 30 41 16 22 1014.9 - 0.4
30/04:30am 15.1 10.8 12.2 83 1.6 WNW 26 35 14 19 1014.9 1014.9 0.4
30/04:00am 14.6 11.0 11.9 84 1.5 WNW 22 30 12 16 1014.8 - 0.4
30/03:30am 14.6 9.7 11.2 80 1.8 WNW 28 37 15 20 1015.2 1015.2 0.4
30/03:00am 14.8 10.7 11.6 81 1.7 WNW 24 33 13 18 1015.6 1015.6 0.4
30/02:30am 14.9 10.9 11.7 81 1.7 WNW 24 35 13 19 1015.8 1015.8 0.4
30/02:00am 15.0 11.1 12.1 83 1.6 WNW 24 35 13 19 1015.9 - 0.4
30/01:30am 15.1 11.2 12.2 83 1.6 WNW 24 35 13 19 1015.9 1015.9 0.4
30/01:00am 15.2 10.5 12.0 81 1.7 WNW 28 35 15 19 1016.1 - 0.4
30/12:30am 14.8 11.0 12.5 86 1.3 WNW 24 35 13 19 1016.1 1016.1 0.4
30/12:00am 14.6 10.9 12.6 88 1.1 WNW 24 33 13 18 1016.4 1016.4 0.4
 
Date/Time
CST
Temp
°C
App
Temp
°C
Dew
Point
Rel
Hum
%
Delta-T
°C
Wind Press
QNH
hPa
Press
MSL
hPa
Rain
since 9 am
mm
Dir
 
Spd
km/h
Gust
km/h
Spd
kts
Gust
kts
29/11:30pm 14.6 11.3 12.8 89 1.0 W 22 30 12 16 1016.4 1016.4 0.4
29/11:00pm 14.3 11.4 12.2 87 1.1 WNW 19 26 10 14 1016.5 - 0.4
29/10:30pm 14.4 11.5 12.3 87 1.1 WNW 19 24 10 13 1016.6 1016.6 0.4
29/10:00pm 14.5 11.1 12.5 88 1.1 W 22 30 12 16 1016.6 - 0.4
29/09:30pm 15.0 11.7 11.6 80 1.8 W 20 28 11 15 1016.3 1016.3 0.2
29/09:00pm 14.9 10.1 11.7 81 1.7 W 28 37 15 20 1016.2 1016.2 0.2
29/08:30pm 14.9 10.6 11.9 82 1.6 WNW 26 35 14 19 1015.8 1015.8 0.2
29/08:00pm 14.8 11.8 11.8 82 1.6 WNW 19 24 10 13 1015.8 - 0.2
29/07:30pm 15.0 11.2 12.3 84 1.5 W 24 32 13 17 1015.7 1015.7 0.2
29/07:00pm 14.8 9.4 12.1 84 1.5 W 32 46 17 25 1015.5 - 0.2
29/06:54pm 15.0 10.3 12.0 82 1.6 W 28 46 15 25 1015.2 - 0.2
29/06:30pm 15.4 11.5 12.2 81 1.7 W 24 35 13 19 1015.0 1015.0 0.2
29/06:00pm 15.4 10.2 12.7 84 1.5 W 32 43 17 23 1014.8 1014.8 0.2
29/05:30pm 15.7 10.8 12.5 81 1.8 WNW 30 43 16 23 1014.4 1014.4 0.2
29/05:00pm 16.1 12.0 12.7 80 1.9 W 26 37 14 20 1014.2 - 0.2
29/04:30pm 16.5 11.1 12.3 76 2.3 W 32 46 17 25 1013.9 1013.9 0.2
29/04:00pm 16.4 11.1 12.6 78 2.1 W 32 50 17 27 1013.6 - 0.2
29/03:30pm 16.4 10.2 12.6 78 2.1 WNW 37 59 20 32 1013.3 1013.3 0.2
29/03:00pm 16.4 10.6 12.8 79 2.0 W 35 52 19 28 1013.3 1013.3 0.2
29/02:30pm 17.4 11.3 12.9 75 2.5 W 37 56 20 30 1013.2 1013.2 0.2
29/02:10pm 17.5 11.9 13.2 76 2.4 W 35 54 19 29 1013.1 - 0.2
29/02:00pm 16.5 9.6 12.7 78 2.1 W 41 52 22 28 1013.0 - 0.2
29/01:30pm 16.8 9.8 12.5 76 2.4 W 41 57 22 31 1013.2 1013.2 0.2
29/01:00pm 16.9 10.1 12.0 73 2.7 W 39 59 21 32 1013.0 - 0.2
29/12:30pm 17.1 9.6 12.2 73 2.7 WNW 43 85 23 46 1013.1 1013.1 0.2
29/12:27pm 16.8 9.9 11.7 72 2.8 WNW 39 85 21 46 1012.9 - 0.2
29/12:00pm 16.6 10.4 12.6 77 2.2 W 37 57 20 31 1013.4 1013.4 0.2
29/11:36am 16.7 10.5 12.5 76 2.3 WNW 37 56 20 30 1013.5 - 0.2
29/11:30am 17.1 10.2 12.8 76 2.4 WNW 41 56 22 30 1013.6 1013.6 0.2
29/11:02am 16.2 9.2 12.6 79 2.0 WNW 41 63 22 34 1013.4 - 0.2
29/11:00am 16.2 9.5 12.4 78 2.1 WNW 39 56 21 30 1013.4 - 0.2
29/10:44am 16.5 10.4 11.9 74 2.5 WNW 35 67 19 36 1013.5 - 0.2
29/10:30am 16.0 10.5 12.6 80 1.9 WNW 33 48 18 26 1013.7 1013.7 0.2
29/10:00am 16.1 9.8 12.3 78 2.1 WNW 37 57 20 31 1013.6 - 0.2
29/09:43am 15.9 10.6 12.6 81 1.8 WNW 32 50 17 27 1013.5 - 0.2
29/09:30am 15.4 9.5 12.5 83 1.6 WNW 35 50 19 27 1013.4 1013.4 0.2
29/09:00am 15.8 9.9 12.5 81 1.8 WNW 35 54 19 29 1013.1 1013.1 4.0
29/08:50am 15.7 10.2 12.6 82 1.7 WNW 33 57 18 31 1013.2 - 4.0
29/08:30am 15.4 10.6 12.9 85 1.4 WNW 30 41 16 22 1013.1 1013.1 4.0
29/08:00am 14.5 10.7 12.4 87 1.1 WNW 24 33 13 18 1013.2 - 4.0
29/07:30am 14.6 11.1 12.3 86 1.3 WNW 22 30 12 16 1013.1 1013.1 4.0
29/07:00am 14.1 10.9 12.0 87 1.1 WNW 20 28 11 15 1012.6 - 4.0
29/06:30am 13.8 10.0 12.4 91 0.8 WNW 24 32 13 17 1012.9 1012.9 4.0
29/06:17am 13.6 8.9 12.0 90 0.9 WNW 28 41 15 22 1012.7 - 4.0
29/06:00am 13.6 7.7 12.5 93 0.6 W 35 56 19 30 1012.6 1012.6 4.0
29/05:49am 13.7 9.2 12.6 93 0.6 W 28 56 15 30 1012.4 - 2.8
29/05:30am 14.1 10.4 12.8 92 0.7 WNW 24 35 13 19 1012.1 1012.1 0.8
29/05:18am 14.4 9.9 12.6 89 1.0 NW 28 41 15 22 1011.9 - 0.4
29/05:17am 14.5 10.0 12.5 88 1.1 NW 28 46 15 25 1011.9 - 0.4
29/05:00am 14.6 9.6 12.1 85 1.4 NW 30 41 16 22 1012.0 - 0.2
29/04:35am 14.2 9.9 12.2 88 1.1 WNW 26 41 14 22 1012.3 - 0.2
29/04:30am 14.1 10.3 12.3 89 1.0 WNW 24 32 13 17 1012.4 1012.4 0.2
29/04:12am 14.3 9.3 12.2 87 1.1 WNW 30 41 16 22 1012.7 - 0.0
29/04:11am 14.3 9.3 12.2 87 1.1 WNW 30 41 16 22 1012.6 - 0.0
29/04:00am 14.5 9.1 12.2 86 1.2 WNW 32 43 17 23 1012.5 - 0.0
29/03:52am 14.6 9.6 12.1 85 1.4 WNW 30 41 16 22 1012.4 - 0.0
29/03:30am 14.9 10.1 11.7 81 1.7 WNW 28 43 15 23 1012.3 1012.3 0.0
29/03:00am 14.6 9.3 11.4 81 1.7 NW 30 48 16 26 1012.1 1012.1 0.0
29/02:56am 14.7 9.9 11.5 81 1.7 NW 28 48 15 26 1012.0 - 0.0
29/02:30am 14.8 10.8 11.8 82 1.6 NW 24 33 13 18 1012.0 1012.0 0.0
29/02:00am 14.7 11.1 12.0 84 1.5 NW 22 39 12 21 1012.3 - 0.0
29/01:30am 14.3 10.4 12.0 86 1.2 NW 24 35 13 19 1012.5 1012.5 0.0
29/01:00am 14.4 9.3 11.9 85 1.3 NW 30 43 16 23 1012.8 - 0.0
29/12:30am 14.3 8.7 11.6 84 1.4 NW 32 44 17 24 1013.2 1013.2 0.0
29/12:00am 14.3 9.1 11.5 83 1.5 NW 30 44 16 24 1013.4 1013.4 0.0
 
Date/Time
CST
Temp
°C
App
Temp
°C
Dew
Point
Rel
Hum
%
Delta-T
°C
Wind Press
QNH
hPa
Press
MSL
hPa
Rain
since 9 am
mm
Dir
 
Spd
km/h
Gust
km/h
Spd
kts
Gust
kts
28/11:38pm 14.3 9.1 11.5 83 1.5 NW 30 48 16 26 1013.4 - 0.0
28/11:30pm 14.5 9.7 11.5 82 1.6 NW 28 44 15 24 1013.5 1013.5 0.0
28/11:00pm 14.5 10.0 11.3 81 1.7 NNW 26 41 14 22 1013.9 - 0.0
28/10:52pm 14.6 9.7 11.4 81 1.7 NW 28 46 15 25 1013.9 - 0.0
28/10:30pm 14.6 9.8 11.6 82 1.6 NW 28 39 15 21 1014.2 1014.2 0.0
28/10:00pm 14.5 9.3 11.5 82 1.6 NW 30 41 16 22 1014.2 - 0.0
28/09:30pm 14.6 9.0 11.4 81 1.7 NW 32 43 17 23 1014.3 1014.3 0.0
28/09:00pm 14.7 10.2 11.3 80 1.8 NW 26 41 14 22 1014.6 1014.6 0.0
28/08:30pm 14.6 10.4 11.0 79 1.9 NW 24 33 13 18 1014.5 1014.5 0.0
28/08:00pm 14.6 10.7 10.8 78 2.0 NW 22 32 12 17 1014.5 - 0.0
28/07:30pm 14.5 11.1 11.1 80 1.8 NW 20 28 11 15 1014.4 1014.4 0.0
28/07:00pm 14.5 10.9 10.5 77 2.1 NW 20 28 11 15 1014.2 - 0.0
28/06:30pm 14.9 10.4 10.1 73 2.5 NW 24 35 13 19 1014.1 1014.1 0.0
28/06:00pm 14.8 10.3 10.0 73 2.5 NW 24 35 13 19 1014.1 1014.1 0.0
28/05:30pm 14.9 10.0 10.1 73 2.5 NW 26 35 14 19 1014.0 1014.0 0.0
28/05:00pm 14.9 9.6 9.9 72 2.6 NW 28 39 15 21 1014.1 - 0.0
28/04:30pm 15.6 11.0 11.2 75 2.4 NW 26 35 14 19 1013.8 1013.8 0.0
28/04:00pm 15.8 10.1 11.0 73 2.6 NW 32 46 17 25 1014.0 - 0.0
28/03:30pm 15.7 9.9 10.9 73 2.6 NW 32 46 17 25 1013.9 1013.9 0.0
28/03:00pm 15.7 8.5 10.7 72 2.7 WNW 39 52 21 28 1014.0 1014.0 0.0
28/02:54pm 15.6 9.4 9.9 69 3.0 WNW 33 52 18 28 1014.0 - 0.0
28/02:30pm 16.1 11.3 11.5 74 2.5 WNW 28 43 15 23 1013.9 1013.9 0.0
28/02:00pm 16.7 11.0 11.0 69 3.1 NW 32 46 17 25 1014.0 - 0.0
28/01:30pm 17.0 11.2 11.5 70 3.0 WNW 33 44 18 24 1014.5 1014.5 0.0
28/01:16pm 16.7 11.1 10.3 66 3.4 NW 30 48 16 26 1014.7 - 0.0
28/01:00pm 17.1 11.0 11.6 70 3.0 WNW 35 46 19 25 1015.1 - 0.0
28/12:30pm 16.6 10.8 10.9 69 3.0 WNW 32 44 17 24 1015.6 1015.6 0.0
28/12:00pm 16.9 11.1 11.6 71 2.9 WNW 33 44 18 24 1016.0 1016.0 0.0
28/11:30am 16.6 10.8 11.5 72 2.8 NW 33 44 18 24 1016.2 1016.2 0.0
28/11:00am 16.1 12.7 12.5 79 2.0 NW 22 30 12 16 1016.6 - 0.0
28/10:30am 15.2 11.4 12.5 84 1.5 NW 24 30 13 16 1016.7 1016.7 0.0
28/10:00am 15.4 12.3 12.3 82 1.7 NW 20 28 11 15 1016.8 - 0.0
28/09:30am 14.9 12.3 12.0 83 1.6 NNW 17 26 9 14 1017.1 1017.1 0.0
28/09:00am 14.2 11.8 11.4 83 1.5 NW 15 19 8 10 1017.0 1017.0 0.2
28/08:30am 12.7 10.4 10.4 86 1.2 NW 13 17 7 9 1016.8 - 0.2
28/08:00am 11.2 8.6 10.7 97 0.3 NW 15 20 8 11 1016.8 - 0.2
28/07:30am 9.7 7.9 9.4 98 0.1 NW 9 11 5 6 1016.6 - 0.2
28/07:00am 8.9 6.9 8.6 98 0.1 NW 9 11 5 6 1016.3 - 0.2
28/06:45am 8.2 6.0 7.9 98 0.1 NNW 9 11 5 6 1016.1 - 0.2
28/06:30am 7.5 5.1 7.2 98 0.1 NNW 9 11 5 6 1016.0 - 0.2
28/06:12am 7.0 4.5 6.7 98 0.1 NNW 9 11 5 6 1016.0 - 0.2
28/06:00am 8.1 5.9 7.8 98 0.1 NNW 9 11 5 6 1015.9 1015.9 0.2
28/05:59am 8.0 5.8 7.7 98 0.1 NNW 9 11 5 6 1016.0 - 0.2
28/05:30am 6.2 3.6 5.9 98 0.1 SW 9 15 5 8 1015.9 - 0.2
28/05:00am 6.0 3.8 5.4 96 0.3 WNW 6 7 3 4 1016.0 - 0.2
28/04:45am 7.3 4.5 6.9 97 0.2 NNW 11 13 6 7 1016.0 - 0.2
28/04:30am 8.9 7.3 8.6 98 0.1 NNW 7 9 4 5 1016.1 - 0.2
28/04:09am 8.3 6.5 8.0 98 0.1 N 7 7 4 4 1016.3 - 0.0
28/04:00am 7.5 5.7 7.1 97 0.2 N 6 7 3 4 1016.4 - 0.0
28/03:30am 7.7 7.1 7.3 97 0.2 CALM 0 0 0 0 1016.4 - 0.0
28/03:00am 8.1 6.8 7.7 97 0.2 NE 4 9 2 5 1016.3 1016.3 0.0
28/02:58am 7.8 6.4 7.2 96 0.3 NNE 4 9 2 5 1016.3 - 0.0
28/02:52am 6.9 6.0 6.2 95 0.3 CALM 0 0 0 0 1016.4 - 0.0
28/02:30am 7.7 7.0 7.0 95 0.3 CALM 0 0 0 0 1016.2 - 0.0
28/02:00am 8.5 7.9 7.4 93 0.5 CALM 0 0 0 0 1016.3 - 0.0
28/01:52am 9.8 9.6 8.9 94 0.4 CALM 0 0 0 0 1016.5 - 0.0
28/01:30am 10.7 9.5 9.6 93 0.6 N 6 9 3 5 1016.4 - 0.0
28/01:00am 11.0 9.4 10.1 94 0.5 N 9 11 5 6 1016.6 - 0.0
28/12:30am 10.4 10.2 9.0 91 0.7 CALM 0 0 0 0 1017.0 - 0.0
28/12:00am 11.2 11.3 10.1 93 0.6 CALM 0 6 0 3 1017.3 1017.3 0.0
 
Date/Time
CST
Temp
°C
App
Temp
°C
Dew
Point
Rel
Hum
%
Delta-T
°C
Wind Press
QNH
hPa
Press
MSL
hPa
Rain
since 9 am
mm
Dir
 
Spd
km/h
Gust
km/h
Spd
kts
Gust
kts
27/11:30pm 11.2 10.1 9.8 91 0.7 NW 6 7 3 4 1017.2 - 0.0
27/11:00pm 11.4 9.7 10.0 91 0.7 NW 9 13 5 7 1017.2 - 0.0
27/10:30pm 11.6 9.9 10.0 90 0.8 NW 9 11 5 6 1017.5 - 0.0
27/10:00pm 11.6 9.9 9.7 88 1.0 NW 9 11 5 6 1017.6 - 0.0
27/09:30pm 12.2 10.5 9.9 86 1.2 NW 9 13 5 7 1017.6 - 0.0
27/09:00pm 13.1 10.8 10.3 83 1.4 NW 13 15 7 8 1017.7 1017.7 0.0
27/08:30pm 13.3 11.3 10.1 81 1.7 NNW 11 20 6 11 1017.5 - 0.0

Other Formats:

Comma delimited format used in spreadsheet applications
http://www.bom.gov.au/fwo/IDS60801/IDS60801.95807.axf

JavaScript Object Notation format (JSON) in row-major order
http://www.bom.gov.au/fwo/IDS60801/IDS60801.95807.json